sensor_id;sensor_type;location;lat;lon;timestamp;P1;durP1;ratioP1;P2;durP2;ratioP2
59310;SDS011;45078;51.654;21.250;2023-04-25T00:01:20;14.80;;;8.38;;
59310;SDS011;45078;51.654;21.250;2023-04-25T00:03:47;16.23;;;8.80;;
59310;SDS011;45078;51.654;21.250;2023-04-25T00:06:13;13.05;;;8.90;;
59310;SDS011;45078;51.654;21.250;2023-04-25T00:08:39;12.65;;;8.00;;
59310;SDS011;45078;51.654;21.250;2023-04-25T00:11:05;14.73;;;8.63;;
59310;SDS011;45078;51.654;21.250;2023-04-25T00:13:31;16.00;;;9.23;;
59310;SDS011;45078;51.654;21.250;2023-04-25T00:15:57;16.90;;;8.68;;
59310;SDS011;45078;51.654;21.250;2023-04-25T00:18:23;14.35;;;8.80;;
59310;SDS011;45078;51.654;21.250;2023-04-25T00:20:49;13.63;;;8.52;;
59310;SDS011;45078;51.654;21.250;2023-04-25T00:23:16;15.50;;;8.38;;
59310;SDS011;45078;51.654;21.250;2023-04-25T00:25:45;15.82;;;9.45;;
59310;SDS011;45078;51.654;21.250;2023-04-25T00:28:12;17.92;;;9.43;;
59310;SDS011;45078;51.654;21.250;2023-04-25T00:30:38;11.73;;;8.77;;
59310;SDS011;45078;51.654;21.250;2023-04-25T00:33:05;14.43;;;8.32;;
59310;SDS011;45078;51.654;21.250;2023-04-25T00:35:31;12.77;;;8.50;;
59310;SDS011;45078;51.654;21.250;2023-04-25T00:37:57;16.02;;;7.78;;
59310;SDS011;45078;51.654;21.250;2023-04-25T00:40:23;14.88;;;9.40;;
59310;SDS011;45078;51.654;21.250;2023-04-25T00:42:50;14.52;;;8.95;;
59310;SDS011;45078;51.654;21.250;2023-04-25T00:45:18;16.55;;;9.02;;
59310;SDS011;45078;51.654;21.250;2023-04-25T00:47:44;14.05;;;9.00;;
59310;SDS011;45078;51.654;21.250;2023-04-25T00:50:10;16.58;;;8.98;;
59310;SDS011;45078;51.654;21.250;2023-04-25T00:52:40;16.15;;;8.82;;
59310;SDS011;45078;51.654;21.250;2023-04-25T00:55:09;15.05;;;9.10;;
59310;SDS011;45078;51.654;21.250;2023-04-25T00:57:36;15.50;;;9.73;;
59310;SDS011;45078;51.654;21.250;2023-04-25T01:00:03;18.23;;;9.50;;
59310;SDS011;45078;51.654;21.250;2023-04-25T01:02:34;17.92;;;10.15;;
59310;SDS011;45078;51.654;21.250;2023-04-25T01:05:01;13.98;;;9.05;;
59310;SDS011;45078;51.654;21.250;2023-04-25T01:07:27;14.68;;;9.27;;
59310;SDS011;45078;51.654;21.250;2023-04-25T01:09:53;17.10;;;8.95;;
59310;SDS011;45078;51.654;21.250;2023-04-25T01:12:20;16.80;;;9.63;;
59310;SDS011;45078;51.654;21.250;2023-04-25T01:14:46;17.42;;;9.50;;
59310;SDS011;45078;51.654;21.250;2023-04-25T01:17:12;15.10;;;8.88;;
59310;SDS011;45078;51.654;21.250;2023-04-25T01:19:40;15.45;;;9.40;;
59310;SDS011;45078;51.654;21.250;2023-04-25T01:22:06;17.20;;;9.95;;
59310;SDS011;45078;51.654;21.250;2023-04-25T01:24:32;18.00;;;10.45;;
59310;SDS011;45078;51.654;21.250;2023-04-25T01:26:59;17.98;;;9.73;;
59310;SDS011;45078;51.654;21.250;2023-04-25T01:29:26;14.98;;;9.60;;
59310;SDS011;45078;51.654;21.250;2023-04-25T01:31:53;18.90;;;10.55;;
59310;SDS011;45078;51.654;21.250;2023-04-25T01:34:19;15.30;;;8.75;;
59310;SDS011;45078;51.654;21.250;2023-04-25T01:36:47;15.68;;;9.82;;
59310;SDS011;45078;51.654;21.250;2023-04-25T01:39:15;18.02;;;10.90;;
59310;SDS011;45078;51.654;21.250;2023-04-25T01:41:42;17.30;;;10.15;;
59310;SDS011;45078;51.654;21.250;2023-04-25T01:44:08;15.45;;;9.45;;
59310;SDS011;45078;51.654;21.250;2023-04-25T01:46:34;16.48;;;10.25;;
59310;SDS011;45078;51.654;21.250;2023-04-25T01:49:00;15.95;;;10.57;;
59310;SDS011;45078;51.654;21.250;2023-04-25T01:51:26;19.70;;;11.18;;
59310;SDS011;45078;51.654;21.250;2023-04-25T01:53:52;18.20;;;10.50;;
59310;SDS011;45078;51.654;21.250;2023-04-25T01:58:54;17.70;;;11.02;;
59310;SDS011;45078;51.654;21.250;2023-04-25T02:01:20;19.48;;;11.57;;
59310;SDS011;45078;51.654;21.250;2023-04-25T02:03:46;19.85;;;10.93;;
59310;SDS011;45078;51.654;21.250;2023-04-25T02:06:11;21.80;;;10.95;;
59310;SDS011;45078;51.654;21.250;2023-04-25T02:08:37;18.75;;;10.48;;
59310;SDS011;45078;51.654;21.250;2023-04-25T02:11:03;16.45;;;10.85;;
59310;SDS011;45078;51.654;21.250;2023-04-25T02:13:29;18.58;;;10.52;;
59310;SDS011;45078;51.654;21.250;2023-04-25T02:15:55;23.70;;;11.77;;
59310;SDS011;45078;51.654;21.250;2023-04-25T02:18:21;16.90;;;9.95;;
59310;SDS011;45078;51.654;21.250;2023-04-25T02:20:46;18.75;;;9.80;;
59310;SDS011;45078;51.654;21.250;2023-04-25T02:23:13;17.80;;;10.52;;
59310;SDS011;45078;51.654;21.250;2023-04-25T02:25:40;18.10;;;10.02;;
59310;SDS011;45078;51.654;21.250;2023-04-25T02:28:06;16.08;;;9.65;;
59310;SDS011;45078;51.654;21.250;2023-04-25T02:30:32;16.52;;;10.27;;
59310;SDS011;45078;51.654;21.250;2023-04-25T02:32:58;25.98;;;10.60;;
59310;SDS011;45078;51.654;21.250;2023-04-25T02:35:24;14.93;;;9.60;;
59310;SDS011;45078;51.654;21.250;2023-04-25T02:37:50;17.75;;;10.30;;
59310;SDS011;45078;51.654;21.250;2023-04-25T02:40:16;21.30;;;10.45;;
59310;SDS011;45078;51.654;21.250;2023-04-25T02:42:42;17.17;;;9.95;;
59310;SDS011;45078;51.654;21.250;2023-04-25T02:45:10;15.15;;;9.18;;
59310;SDS011;45078;51.654;21.250;2023-04-25T02:47:37;16.02;;;9.50;;
59310;SDS011;45078;51.654;21.250;2023-04-25T02:50:03;17.40;;;9.80;;
59310;SDS011;45078;51.654;21.250;2023-04-25T02:52:29;15.60;;;9.25;;
59310;SDS011;45078;51.654;21.250;2023-04-25T02:54:55;16.55;;;9.70;;
59310;SDS011;45078;51.654;21.250;2023-04-25T02:57:21;20.13;;;10.77;;
59310;SDS011;45078;51.654;21.250;2023-04-25T02:59:48;19.75;;;10.18;;
59310;SDS011;45078;51.654;21.250;2023-04-25T03:02:14;18.92;;;10.85;;
59310;SDS011;45078;51.654;21.250;2023-04-25T03:04:40;17.60;;;10.93;;
59310;SDS011;45078;51.654;21.250;2023-04-25T03:07:06;17.83;;;9.75;;
59310;SDS011;45078;51.654;21.250;2023-04-25T03:09:33;18.23;;;10.07;;
59310;SDS011;45078;51.654;21.250;2023-04-25T03:11:58;16.85;;;10.30;;
59310;SDS011;45078;51.654;21.250;2023-04-25T03:14:25;18.85;;;9.38;;
59310;SDS011;45078;51.654;21.250;2023-04-25T03:16:51;14.68;;;9.57;;
59310;SDS011;45078;51.654;21.250;2023-04-25T03:19:17;14.52;;;9.18;;
59310;SDS011;45078;51.654;21.250;2023-04-25T03:21:43;17.02;;;9.65;;
59310;SDS011;45078;51.654;21.250;2023-04-25T03:24:09;15.13;;;9.13;;
59310;SDS011;45078;51.654;21.250;2023-04-25T03:26:36;22.27;;;11.13;;
59310;SDS011;45078;51.654;21.250;2023-04-25T03:29:02;17.45;;;10.90;;
59310;SDS011;45078;51.654;21.250;2023-04-25T03:31:28;19.70;;;10.57;;
59310;SDS011;45078;51.654;21.250;2023-04-25T03:33:54;18.95;;;10.93;;
59310;SDS011;45078;51.654;21.250;2023-04-25T03:36:19;17.23;;;10.60;;
59310;SDS011;45078;51.654;21.250;2023-04-25T03:38:45;18.13;;;10.10;;
59310;SDS011;45078;51.654;21.250;2023-04-25T03:41:14;16.85;;;10.05;;
59310;SDS011;45078;51.654;21.250;2023-04-25T03:43:40;18.20;;;10.43;;
59310;SDS011;45078;51.654;21.250;2023-04-25T03:46:05;17.40;;;10.50;;
59310;SDS011;45078;51.654;21.250;2023-04-25T03:48:31;15.25;;;9.40;;
59310;SDS011;45078;51.654;21.250;2023-04-25T03:50:57;18.35;;;9.43;;
59310;SDS011;45078;51.654;21.250;2023-04-25T03:53:23;16.25;;;9.07;;
59310;SDS011;45078;51.654;21.250;2023-04-25T03:55:51;16.88;;;9.95;;
59310;SDS011;45078;51.654;21.250;2023-04-25T03:58:17;16.20;;;9.50;;
59310;SDS011;45078;51.654;21.250;2023-04-25T04:00:43;17.10;;;8.70;;
59310;SDS011;45078;51.654;21.250;2023-04-25T04:03:08;16.75;;;9.23;;
59310;SDS011;45078;51.654;21.250;2023-04-25T04:05:36;23.65;;;9.70;;
59310;SDS011;45078;51.654;21.250;2023-04-25T04:08:02;18.02;;;9.13;;
59310;SDS011;45078;51.654;21.250;2023-04-25T04:10:28;11.82;;;7.50;;
59310;SDS011;45078;51.654;21.250;2023-04-25T04:12:54;18.15;;;8.07;;
59310;SDS011;45078;51.654;21.250;2023-04-25T04:15:19;14.13;;;7.78;;
59310;SDS011;45078;51.654;21.250;2023-04-25T04:17:45;12.23;;;7.18;;
59310;SDS011;45078;51.654;21.250;2023-04-25T04:20:13;14.13;;;7.95;;
59310;SDS011;45078;51.654;21.250;2023-04-25T04:22:38;11.02;;;6.40;;
59310;SDS011;45078;51.654;21.250;2023-04-25T04:25:05;10.27;;;6.10;;
59310;SDS011;45078;51.654;21.250;2023-04-25T04:27:31;11.57;;;5.82;;
59310;SDS011;45078;51.654;21.250;2023-04-25T04:29:57;11.52;;;6.03;;
59310;SDS011;45078;51.654;21.250;2023-04-25T04:32:23;9.30;;;5.55;;
59310;SDS011;45078;51.654;21.250;2023-04-25T04:34:50;9.20;;;5.07;;
59310;SDS011;45078;51.654;21.250;2023-04-25T04:37:17;10.75;;;5.57;;
59310;SDS011;45078;51.654;21.250;2023-04-25T04:39:43;11.07;;;5.82;;
59310;SDS011;45078;51.654;21.250;2023-04-25T04:42:09;8.15;;;5.50;;
59310;SDS011;45078;51.654;21.250;2023-04-25T04:44:36;7.00;;;4.35;;
59310;SDS011;45078;51.654;21.250;2023-04-25T04:47:04;11.95;;;5.63;;
59310;SDS011;45078;51.654;21.250;2023-04-25T04:49:31;7.13;;;4.38;;
59310;SDS011;45078;51.654;21.250;2023-04-25T04:51:57;8.35;;;5.03;;
59310;SDS011;45078;51.654;21.250;2023-04-25T04:54:25;7.45;;;4.18;;
59310;SDS011;45078;51.654;21.250;2023-04-25T04:56:52;10.02;;;4.82;;
59310;SDS011;45078;51.654;21.250;2023-04-25T04:59:18;8.07;;;4.60;;
59310;SDS011;45078;51.654;21.250;2023-04-25T05:01:44;9.23;;;4.85;;
59310;SDS011;45078;51.654;21.250;2023-04-25T05:04:10;7.10;;;4.47;;
59310;SDS011;45078;51.654;21.250;2023-04-25T05:06:36;6.90;;;4.45;;
59310;SDS011;45078;51.654;21.250;2023-04-25T05:09:02;6.50;;;4.07;;
59310;SDS011;45078;51.654;21.250;2023-04-25T05:11:29;7.75;;;4.68;;
59310;SDS011;45078;51.654;21.250;2023-04-25T05:13:54;7.63;;;4.90;;
59310;SDS011;45078;51.654;21.250;2023-04-25T05:16:21;7.95;;;4.95;;
59310;SDS011;45078;51.654;21.250;2023-04-25T05:18:47;8.90;;;5.00;;
59310;SDS011;45078;51.654;21.250;2023-04-25T05:21:13;9.55;;;4.75;;
59310;SDS011;45078;51.654;21.250;2023-04-25T05:23:39;9.48;;;5.82;;
59310;SDS011;45078;51.654;21.250;2023-04-25T05:26:04;12.27;;;5.70;;
59310;SDS011;45078;51.654;21.250;2023-04-25T05:28:30;9.80;;;5.65;;
59310;SDS011;45078;51.654;21.250;2023-04-25T05:30:56;9.98;;;5.45;;
59310;SDS011;45078;51.654;21.250;2023-04-25T05:33:22;13.80;;;6.15;;
59310;SDS011;45078;51.654;21.250;2023-04-25T05:35:48;16.63;;;6.95;;
59310;SDS011;45078;51.654;21.250;2023-04-25T05:38:14;12.15;;;5.65;;
59310;SDS011;45078;51.654;21.250;2023-04-25T05:40:41;12.27;;;6.90;;
59310;SDS011;45078;51.654;21.250;2023-04-25T05:43:07;10.43;;;6.65;;
59310;SDS011;45078;51.654;21.250;2023-04-25T05:45:33;10.27;;;6.05;;
59310;SDS011;45078;51.654;21.250;2023-04-25T05:47:58;11.20;;;6.72;;
59310;SDS011;45078;51.654;21.250;2023-04-25T05:50:25;10.13;;;6.38;;
59310;SDS011;45078;51.654;21.250;2023-04-25T05:52:50;10.88;;;6.40;;
59310;SDS011;45078;51.654;21.250;2023-04-25T05:55:16;11.50;;;6.57;;
59310;SDS011;45078;51.654;21.250;2023-04-25T05:57:42;12.15;;;7.00;;
59310;SDS011;45078;51.654;21.250;2023-04-25T06:00:11;9.45;;;5.63;;
59310;SDS011;45078;51.654;21.250;2023-04-25T06:02:38;9.73;;;6.22;;
59310;SDS011;45078;51.654;21.250;2023-04-25T06:05:04;10.63;;;6.53;;
59310;SDS011;45078;51.654;21.250;2023-04-25T06:07:30;10.32;;;6.20;;
59310;SDS011;45078;51.654;21.250;2023-04-25T06:09:56;9.43;;;6.32;;
59310;SDS011;45078;51.654;21.250;2023-04-25T06:12:22;11.20;;;6.78;;
59310;SDS011;45078;51.654;21.250;2023-04-25T06:14:48;9.38;;;6.15;;
59310;SDS011;45078;51.654;21.250;2023-04-25T06:17:13;10.68;;;6.20;;
59310;SDS011;45078;51.654;21.250;2023-04-25T06:19:39;10.32;;;6.25;;
59310;SDS011;45078;51.654;21.250;2023-04-25T06:22:06;10.07;;;5.72;;
59310;SDS011;45078;51.654;21.250;2023-04-25T06:24:33;9.95;;;6.07;;
59310;SDS011;45078;51.654;21.250;2023-04-25T06:26:59;9.98;;;5.93;;
59310;SDS011;45078;51.654;21.250;2023-04-25T06:29:25;9.35;;;5.65;;
59310;SDS011;45078;51.654;21.250;2023-04-25T06:31:51;11.18;;;5.88;;
59310;SDS011;45078;51.654;21.250;2023-04-25T06:34:17;8.90;;;5.43;;
59310;SDS011;45078;51.654;21.250;2023-04-25T06:36:43;9.32;;;6.00;;
59310;SDS011;45078;51.654;21.250;2023-04-25T06:39:09;10.05;;;5.60;;
59310;SDS011;45078;51.654;21.250;2023-04-25T06:41:36;9.00;;;5.80;;
59310;SDS011;45078;51.654;21.250;2023-04-25T06:44:02;9.63;;;5.72;;
59310;SDS011;45078;51.654;21.250;2023-04-25T06:46:28;9.40;;;6.07;;
59310;SDS011;45078;51.654;21.250;2023-04-25T06:48:54;8.93;;;5.47;;
59310;SDS011;45078;51.654;21.250;2023-04-25T06:51:20;9.27;;;5.40;;
59310;SDS011;45078;51.654;21.250;2023-04-25T06:53:46;8.93;;;5.70;;
59310;SDS011;45078;51.654;21.250;2023-04-25T06:56:12;10.10;;;5.68;;
59310;SDS011;45078;51.654;21.250;2023-04-25T06:58:37;10.45;;;6.50;;
59310;SDS011;45078;51.654;21.250;2023-04-25T07:01:03;9.50;;;5.20;;
59310;SDS011;45078;51.654;21.250;2023-04-25T07:03:29;7.45;;;5.57;;
59310;SDS011;45078;51.654;21.250;2023-04-25T07:05:55;8.80;;;5.28;;
59310;SDS011;45078;51.654;21.250;2023-04-25T07:08:21;8.70;;;5.30;;
59310;SDS011;45078;51.654;21.250;2023-04-25T07:10:47;6.55;;;4.38;;
59310;SDS011;45078;51.654;21.250;2023-04-25T07:13:13;8.85;;;5.07;;
59310;SDS011;45078;51.654;21.250;2023-04-25T07:15:38;8.25;;;5.13;;
59310;SDS011;45078;51.654;21.250;2023-04-25T07:18:04;8.02;;;5.30;;
59310;SDS011;45078;51.654;21.250;2023-04-25T07:20:30;8.80;;;5.13;;
59310;SDS011;45078;51.654;21.250;2023-04-25T07:22:57;7.85;;;5.43;;
59310;SDS011;45078;51.654;21.250;2023-04-25T07:25:22;9.40;;;5.53;;
59310;SDS011;45078;51.654;21.250;2023-04-25T07:27:48;7.97;;;5.30;;
59310;SDS011;45078;51.654;21.250;2023-04-25T07:30:14;9.02;;;5.45;;
59310;SDS011;45078;51.654;21.250;2023-04-25T07:32:40;9.25;;;5.47;;
59310;SDS011;45078;51.654;21.250;2023-04-25T07:35:06;6.72;;;4.35;;
59310;SDS011;45078;51.654;21.250;2023-04-25T07:37:35;9.18;;;5.57;;
59310;SDS011;45078;51.654;21.250;2023-04-25T07:40:02;8.13;;;5.45;;
59310;SDS011;45078;51.654;21.250;2023-04-25T07:42:31;8.85;;;5.72;;
59310;SDS011;45078;51.654;21.250;2023-04-25T07:44:57;8.82;;;5.25;;
59310;SDS011;45078;51.654;21.250;2023-04-25T07:47:23;8.48;;;5.55;;
59310;SDS011;45078;51.654;21.250;2023-04-25T07:49:49;8.55;;;5.18;;
59310;SDS011;45078;51.654;21.250;2023-04-25T07:52:15;8.88;;;5.60;;
59310;SDS011;45078;51.654;21.250;2023-04-25T07:54:41;9.48;;;5.88;;
59310;SDS011;45078;51.654;21.250;2023-04-25T07:57:07;10.13;;;5.88;;
59310;SDS011;45078;51.654;21.250;2023-04-25T07:59:33;14.77;;;6.32;;
59310;SDS011;45078;51.654;21.250;2023-04-25T08:02:00;8.65;;;5.85;;
59310;SDS011;45078;51.654;21.250;2023-04-25T08:04:26;7.40;;;5.15;;
59310;SDS011;45078;51.654;21.250;2023-04-25T08:06:52;10.60;;;5.40;;
59310;SDS011;45078;51.654;21.250;2023-04-25T08:09:21;9.80;;;5.38;;
59310;SDS011;45078;51.654;21.250;2023-04-25T08:11:47;9.23;;;5.93;;
59310;SDS011;45078;51.654;21.250;2023-04-25T08:14:13;10.52;;;6.43;;
59310;SDS011;45078;51.654;21.250;2023-04-25T08:16:39;13.50;;;6.93;;
59310;SDS011;45078;51.654;21.250;2023-04-25T08:19:05;13.75;;;7.88;;
59310;SDS011;45078;51.654;21.250;2023-04-25T08:21:31;10.95;;;6.57;;
59310;SDS011;45078;51.654;21.250;2023-04-25T08:23:57;10.70;;;6.25;;
59310;SDS011;45078;51.654;21.250;2023-04-25T08:26:24;10.60;;;6.80;;
59310;SDS011;45078;51.654;21.250;2023-04-25T08:28:50;13.27;;;7.60;;
59310;SDS011;45078;51.654;21.250;2023-04-25T08:31:16;11.60;;;7.15;;
59310;SDS011;45078;51.654;21.250;2023-04-25T08:33:42;13.75;;;8.00;;
59310;SDS011;45078;51.654;21.250;2023-04-25T08:36:10;13.43;;;7.28;;
59310;SDS011;45078;51.654;21.250;2023-04-25T08:38:36;9.07;;;5.80;;
59310;SDS011;45078;51.654;21.250;2023-04-25T08:41:01;13.38;;;8.07;;
59310;SDS011;45078;51.654;21.250;2023-04-25T08:43:28;13.05;;;6.93;;
59310;SDS011;45078;51.654;21.250;2023-04-25T08:45:59;11.77;;;6.80;;
59310;SDS011;45078;51.654;21.250;2023-04-25T08:48:28;10.75;;;6.68;;
59310;SDS011;45078;51.654;21.250;2023-04-25T08:50:57;13.68;;;7.05;;
59310;SDS011;45078;51.654;21.250;2023-04-25T08:53:27;10.88;;;6.60;;
59310;SDS011;45078;51.654;21.250;2023-04-25T08:55:54;11.85;;;6.03;;
59310;SDS011;45078;51.654;21.250;2023-04-25T08:58:21;13.35;;;6.38;;
59310;SDS011;45078;51.654;21.250;2023-04-25T09:00:48;8.60;;;5.32;;
59310;SDS011;45078;51.654;21.250;2023-04-25T09:03:16;9.50;;;4.75;;
59310;SDS011;45078;51.654;21.250;2023-04-25T09:05:42;6.75;;;4.65;;
59310;SDS011;45078;51.654;21.250;2023-04-25T09:08:08;8.13;;;5.20;;
59310;SDS011;45078;51.654;21.250;2023-04-25T09:10:35;9.75;;;5.28;;
59310;SDS011;45078;51.654;21.250;2023-04-25T09:13:02;7.97;;;4.93;;
59310;SDS011;45078;51.654;21.250;2023-04-25T09:15:32;7.93;;;4.68;;
59310;SDS011;45078;51.654;21.250;2023-04-25T09:17:58;7.38;;;4.93;;
59310;SDS011;45078;51.654;21.250;2023-04-25T09:20:24;7.95;;;4.45;;
59310;SDS011;45078;51.654;21.250;2023-04-25T09:23:03;6.85;;;4.30;;
59310;SDS011;45078;51.654;21.250;2023-04-25T09:25:35;7.57;;;4.57;;
59310;SDS011;45078;51.654;21.250;2023-04-25T09:28:04;9.33;;;5.63;;
59310;SDS011;45078;51.654;21.250;2023-04-25T09:30:32;8.95;;;5.10;;
59310;SDS011;45078;51.654;21.250;2023-04-25T09:33:11;6.32;;;4.05;;
59310;SDS011;45078;51.654;21.250;2023-04-25T09:35:38;7.65;;;5.13;;
59310;SDS011;45078;51.654;21.250;2023-04-25T09:38:12;10.25;;;5.15;;
59310;SDS011;45078;51.654;21.250;2023-04-25T09:40:40;7.78;;;4.72;;
59310;SDS011;45078;51.654;21.250;2023-04-25T09:45:47;11.27;;;5.28;;
59310;SDS011;45078;51.654;21.250;2023-04-25T09:48:20;8.25;;;4.97;;
59310;SDS011;45078;51.654;21.250;2023-04-25T09:51:08;9.20;;;5.00;;
59310;SDS011;45078;51.654;21.250;2023-04-25T09:53:38;8.45;;;4.95;;
59310;SDS011;45078;51.654;21.250;2023-04-25T09:56:06;9.63;;;5.68;;
59310;SDS011;45078;51.654;21.250;2023-04-25T09:58:34;7.30;;;4.75;;
59310;SDS011;45078;51.654;21.250;2023-04-25T10:01:02;7.80;;;4.93;;
59310;SDS011;45078;51.654;21.250;2023-04-25T10:03:31;10.25;;;5.53;;
59310;SDS011;45078;51.654;21.250;2023-04-25T10:05:59;9.43;;;5.72;;
59310;SDS011;45078;51.654;21.250;2023-04-25T10:08:33;9.20;;;5.43;;
59310;SDS011;45078;51.654;21.250;2023-04-25T10:11:02;9.93;;;5.60;;
59310;SDS011;45078;51.654;21.250;2023-04-25T10:13:32;10.88;;;6.25;;
59310;SDS011;45078;51.654;21.250;2023-04-25T10:15:59;10.10;;;4.43;;
59310;SDS011;45078;51.654;21.250;2023-04-25T10:18:28;10.18;;;5.18;;
59310;SDS011;45078;51.654;21.250;2023-04-25T10:20:55;12.43;;;5.28;;
59310;SDS011;45078;51.654;21.250;2023-04-25T10:23:23;9.88;;;5.82;;
59310;SDS011;45078;51.654;21.250;2023-04-25T10:25:50;7.85;;;5.30;;
59310;SDS011;45078;51.654;21.250;2023-04-25T10:28:17;12.75;;;5.97;;
59310;SDS011;45078;51.654;21.250;2023-04-25T10:33:34;10.98;;;5.63;;
59310;SDS011;45078;51.654;21.250;2023-04-25T10:38:48;11.45;;;5.70;;
59310;SDS011;45078;51.654;21.250;2023-04-25T10:41:18;13.13;;;7.03;;
59310;SDS011;45078;51.654;21.250;2023-04-25T10:43:48;10.32;;;6.07;;
59310;SDS011;45078;51.654;21.250;2023-04-25T10:48:51;11.52;;;7.20;;
59310;SDS011;45078;51.654;21.250;2023-04-25T10:56:37;9.35;;;5.90;;
59310;SDS011;45078;51.654;21.250;2023-04-25T10:59:06;10.30;;;5.70;;
59310;SDS011;45078;51.654;21.250;2023-04-25T11:01:35;12.18;;;7.10;;
59310;SDS011;45078;51.654;21.250;2023-04-25T11:07:13;9.52;;;5.68;;
59310;SDS011;45078;51.654;21.250;2023-04-25T11:10:03;11.32;;;5.70;;
59310;SDS011;45078;51.654;21.250;2023-04-25T11:12:30;10.05;;;5.07;;
59310;SDS011;45078;51.654;21.250;2023-04-25T11:15:00;8.57;;;4.95;;
59310;SDS011;45078;51.654;21.250;2023-04-25T11:17:28;9.00;;;5.13;;
59310;SDS011;45078;51.654;21.250;2023-04-25T11:19:54;8.32;;;5.05;;
59310;SDS011;45078;51.654;21.250;2023-04-25T11:22:21;8.60;;;4.80;;
59310;SDS011;45078;51.654;21.250;2023-04-25T11:24:49;8.27;;;5.10;;
59310;SDS011;45078;51.654;21.250;2023-04-25T11:27:15;8.32;;;5.45;;
59310;SDS011;45078;51.654;21.250;2023-04-25T11:29:41;7.82;;;5.00;;
59310;SDS011;45078;51.654;21.250;2023-04-25T11:32:07;10.40;;;4.90;;
59310;SDS011;45078;51.654;21.250;2023-04-25T11:34:34;7.68;;;5.15;;
59310;SDS011;45078;51.654;21.250;2023-04-25T11:37:00;7.65;;;5.28;;
59310;SDS011;45078;51.654;21.250;2023-04-25T11:39:27;9.63;;;4.93;;
59310;SDS011;45078;51.654;21.250;2023-04-25T11:41:54;7.38;;;4.82;;
59310;SDS011;45078;51.654;21.250;2023-04-25T11:44:20;8.38;;;4.70;;
59310;SDS011;45078;51.654;21.250;2023-04-25T11:46:47;11.88;;;6.00;;
59310;SDS011;45078;51.654;21.250;2023-04-25T11:49:14;6.95;;;4.18;;
59310;SDS011;45078;51.654;21.250;2023-04-25T11:51:44;9.32;;;4.88;;
59310;SDS011;45078;51.654;21.250;2023-04-25T11:54:12;10.52;;;5.40;;
59310;SDS011;45078;51.654;21.250;2023-04-25T11:56:41;6.50;;;4.10;;
59310;SDS011;45078;51.654;21.250;2023-04-25T11:59:08;7.40;;;4.47;;
59310;SDS011;45078;51.654;21.250;2023-04-25T12:01:38;6.10;;;3.65;;
59310;SDS011;45078;51.654;21.250;2023-04-25T12:06:51;5.88;;;4.10;;
59310;SDS011;45078;51.654;21.250;2023-04-25T12:09:31;5.97;;;4.32;;
59310;SDS011;45078;51.654;21.250;2023-04-25T12:11:59;7.47;;;4.18;;
59310;SDS011;45078;51.654;21.250;2023-04-25T12:14:32;6.03;;;3.78;;
59310;SDS011;45078;51.654;21.250;2023-04-25T12:17:00;6.93;;;4.40;;
59310;SDS011;45078;51.654;21.250;2023-04-25T12:19:39;7.78;;;4.43;;
59310;SDS011;45078;51.654;21.250;2023-04-25T12:22:18;7.75;;;4.53;;
59310;SDS011;45078;51.654;21.250;2023-04-25T12:24:46;7.68;;;4.00;;
59310;SDS011;45078;51.654;21.250;2023-04-25T12:27:13;6.82;;;4.47;;
59310;SDS011;45078;51.654;21.250;2023-04-25T12:29:51;6.55;;;4.28;;
59310;SDS011;45078;51.654;21.250;2023-04-25T12:32:19;6.00;;;4.07;;
59310;SDS011;45078;51.654;21.250;2023-04-25T12:34:44;6.45;;;3.72;;
59310;SDS011;45078;51.654;21.250;2023-04-25T12:37:11;5.57;;;3.58;;
59310;SDS011;45078;51.654;21.250;2023-04-25T12:39:37;6.22;;;4.03;;
59310;SDS011;45078;51.654;21.250;2023-04-25T12:42:03;5.93;;;3.85;;
59310;SDS011;45078;51.654;21.250;2023-04-25T12:44:29;4.95;;;3.65;;
59310;SDS011;45078;51.654;21.250;2023-04-25T12:46:55;5.05;;;3.65;;
59310;SDS011;45078;51.654;21.250;2023-04-25T12:49:21;7.03;;;4.18;;
59310;SDS011;45078;51.654;21.250;2023-04-25T12:51:48;5.90;;;3.85;;
59310;SDS011;45078;51.654;21.250;2023-04-25T12:54:15;8.25;;;3.88;;
59310;SDS011;45078;51.654;21.250;2023-04-25T12:56:41;6.47;;;3.58;;
59310;SDS011;45078;51.654;21.250;2023-04-25T12:59:07;7.55;;;4.30;;
59310;SDS011;45078;51.654;21.250;2023-04-25T13:01:33;6.40;;;4.03;;
59310;SDS011;45078;51.654;21.250;2023-04-25T13:03:59;6.43;;;4.20;;
59310;SDS011;45078;51.654;21.250;2023-04-25T13:06:24;6.07;;;3.78;;
59310;SDS011;45078;51.654;21.250;2023-04-25T13:08:51;4.50;;;2.95;;
59310;SDS011;45078;51.654;21.250;2023-04-25T13:11:17;6.65;;;3.58;;
59310;SDS011;45078;51.654;21.250;2023-04-25T13:13:43;5.07;;;3.22;;
59310;SDS011;45078;51.654;21.250;2023-04-25T13:16:11;7.75;;;3.78;;
59310;SDS011;45078;51.654;21.250;2023-04-25T13:18:41;6.65;;;3.70;;
59310;SDS011;45078;51.654;21.250;2023-04-25T13:21:07;8.75;;;4.00;;
59310;SDS011;45078;51.654;21.250;2023-04-25T13:23:36;5.60;;;3.95;;
59310;SDS011;45078;51.654;21.250;2023-04-25T13:26:02;6.45;;;3.88;;
59310;SDS011;45078;51.654;21.250;2023-04-25T13:28:28;6.68;;;4.55;;
59310;SDS011;45078;51.654;21.250;2023-04-25T13:30:54;7.03;;;3.95;;
59310;SDS011;45078;51.654;21.250;2023-04-25T13:33:20;5.95;;;3.70;;
59310;SDS011;45078;51.654;21.250;2023-04-25T13:35:47;10.27;;;4.55;;
59310;SDS011;45078;51.654;21.250;2023-04-25T13:38:22;7.57;;;4.82;;
59310;SDS011;45078;51.654;21.250;2023-04-25T13:40:49;7.57;;;4.28;;
59310;SDS011;45078;51.654;21.250;2023-04-25T13:43:18;6.20;;;4.03;;
59310;SDS011;45078;51.654;21.250;2023-04-25T13:45:45;10.85;;;4.85;;
59310;SDS011;45078;51.654;21.250;2023-04-25T13:48:11;7.80;;;4.68;;
59310;SDS011;45078;51.654;21.250;2023-04-25T13:50:37;8.18;;;4.80;;
59310;SDS011;45078;51.654;21.250;2023-04-25T13:53:03;6.05;;;3.97;;
59310;SDS011;45078;51.654;21.250;2023-04-25T13:55:29;8.80;;;4.60;;
59310;SDS011;45078;51.654;21.250;2023-04-25T13:57:55;6.70;;;4.22;;
59310;SDS011;45078;51.654;21.250;2023-04-25T14:00:20;8.63;;;4.25;;
59310;SDS011;45078;51.654;21.250;2023-04-25T14:02:47;7.15;;;4.10;;
59310;SDS011;45078;51.654;21.250;2023-04-25T14:05:12;6.47;;;3.97;;
59310;SDS011;45078;51.654;21.250;2023-04-25T14:07:39;8.40;;;4.90;;
59310;SDS011;45078;51.654;21.250;2023-04-25T14:10:05;7.97;;;4.35;;
59310;SDS011;45078;51.654;21.250;2023-04-25T14:12:32;9.20;;;4.38;;
59310;SDS011;45078;51.654;21.250;2023-04-25T14:14:58;7.03;;;4.25;;
59310;SDS011;45078;51.654;21.250;2023-04-25T14:17:24;6.80;;;4.00;;
59310;SDS011;45078;51.654;21.250;2023-04-25T14:19:50;6.80;;;4.43;;
59310;SDS011;45078;51.654;21.250;2023-04-25T14:22:16;8.95;;;5.25;;
59310;SDS011;45078;51.654;21.250;2023-04-25T14:24:42;8.73;;;4.75;;
59310;SDS011;45078;51.654;21.250;2023-04-25T14:27:08;9.27;;;5.18;;
59310;SDS011;45078;51.654;21.250;2023-04-25T14:29:34;7.57;;;4.38;;
59310;SDS011;45078;51.654;21.250;2023-04-25T14:32:00;8.35;;;5.35;;
59310;SDS011;45078;51.654;21.250;2023-04-25T14:34:27;7.55;;;4.65;;
59310;SDS011;45078;51.654;21.250;2023-04-25T14:36:53;11.48;;;5.65;;
59310;SDS011;45078;51.654;21.250;2023-04-25T14:39:19;7.85;;;4.55;;
59310;SDS011;45078;51.654;21.250;2023-04-25T14:41:45;11.85;;;6.00;;
59310;SDS011;45078;51.654;21.250;2023-04-25T14:44:11;8.30;;;5.40;;
59310;SDS011;45078;51.654;21.250;2023-04-25T14:46:38;9.60;;;5.38;;
59310;SDS011;45078;51.654;21.250;2023-04-25T14:49:04;8.23;;;5.22;;